Time;durP1;ratioP1;P1;durP2;ratioP2;P2;SDS_P1;SDS_P2;PMS_P1;PMS_P2;Temp;Humidity;BMP_temperature;BMP_pressure;BME280_temperature;BME280_humidity;BME280_pressure;Samples;Min_cycle;Max_cycle;Signal;HPM_P1;HPM_P2
2023/11/18 00:00:11;;;;;;;36.53;14.00;;;;;;;3.54;100.00;98197.63;5039278;28;20807;-79
2023/11/18 00:02:38;;;;;;;37.88;15.65;;;;;;;3.52;100.00;98200.44;5039276;28;20467;-81
2023/11/18 00:05:07;;;;;;;32.50;13.55;;;;;;;3.55;100.00;98197.44;5039527;28;20399;-82
2023/11/18 00:07:33;;;;;;;32.53;13.90;;;;;;;3.55;100.00;98192.19;5039457;28;20395;-80
2023/11/18 00:10:00;;;;;;;30.50;13.30;;;;;;;3.57;100.00;98192.03;5039866;28;20396;-81
2023/11/18 00:12:26;;;;;;;43.20;16.63;;;;;;;3.54;100.00;98192.38;5038957;28;20437;-82
2023/11/18 00:14:53;;;;;;;41.13;15.68;;;;;;;3.55;100.00;98197.44;5038758;28;20413;-81
2023/11/18 00:17:20;;;;;;;50.10;19.20;;;;;;;3.53;100.00;98188.16;5039002;28;20423;-81
2023/11/18 00:19:47;;;;;;;50.83;18.60;;;;;;;3.51;100.00;98185.72;5038473;28;20425;-82
2023/11/18 00:22:13;;;;;;;41.17;16.35;;;;;;;3.51;100.00;98190.97;5038586;28;20891;-81
2023/11/18 00:24:39;;;;;;;38.40;15.13;;;;;;;3.53;100.00;98188.97;5038625;28;20403;-81
2023/11/18 00:27:07;;;;;;;32.03;14.38;;;;;;;3.54;100.00;98185.34;5038744;28;20393;-82
2023/11/18 00:29:34;;;;;;;46.75;18.92;;;;;;;3.49;100.00;98191.16;5038607;28;20429;-80
2023/11/18 00:32:00;;;;;;;51.03;19.92;;;;;;;3.49;100.00;98178.06;5039309;28;20398;-83
2023/11/18 00:34:26;;;;;;;51.15;20.80;;;;;;;3.50;100.00;98181.50;5038685;28;20438;-82
2023/11/18 00:36:52;;;;;;;56.33;21.75;;;;;;;3.48;100.00;98186.91;5038988;28;20498;-83
2023/11/18 00:39:20;;;;;;;47.00;19.17;;;;;;;3.49;100.00;98187.72;5037806;28;20441;-81
2023/11/18 00:41:46;;;;;;;41.63;17.60;;;;;;;3.49;100.00;98191.16;5038735;28;20434;-83
2023/11/18 00:44:14;;;;;;;59.72;24.27;;;;;;;3.47;100.00;98192.31;5039986;28;20438;-81
2023/11/18 00:46:40;;;;;;;57.40;22.80;;;;;;;3.45;100.00;98192.53;5039507;28;20405;-82
2023/11/18 00:49:06;;;;;;;62.50;23.97;;;;;;;3.45;100.00;98191.72;5040058;28;20397;-83
2023/11/18 00:51:32;;;;;;;65.95;25.13;;;;;;;3.42;100.00;98179.81;5039202;28;20785;-80
2023/11/18 00:54:01;;;;;;;68.07;24.58;;;;;;;3.40;100.00;98191.44;5039530;28;20433;-83
2023/11/18 00:56:28;;;;;;;63.58;23.88;;;;;;;3.40;100.00;98183.59;5039740;28;20429;-82
2023/11/18 00:58:54;;;;;;;58.85;21.17;;;;;;;3.42;100.00;98189.47;5042532;28;20436;-81
2023/11/18 01:01:22;;;;;;;54.13;20.58;;;;;;;3.44;100.00;98190.09;5042477;28;20411;-83
2023/11/18 01:03:48;;;;;;;50.92;20.65;;;;;;;3.43;100.00;98184.03;5039474;28;20407;-81
2023/11/18 01:06:17;;;;;;;59.53;22.23;;;;;;;3.43;100.00;98184.03;5039414;28;20402;-83
2023/11/18 01:08:44;;;;;;;64.95;24.73;;;;;;;3.42;100.00;98182.41;5039225;28;20416;-81
2023/11/18 01:11:11;;;;;;;66.15;24.70;;;;;;;3.38;100.00;98178.53;5038800;28;20387;-81
2023/11/18 01:13:37;;;;;;;60.25;23.48;;;;;;;3.41;100.00;98188.66;5039264;28;20395;-82
2023/11/18 01:16:04;;;;;;;58.30;23.17;;;;;;;3.43;100.00;98180.63;5039209;28;20415;-81
2023/11/18 01:18:31;;;;;;;69.63;26.20;;;;;;;3.39;100.00;98190.63;5038137;28;21013;-82
2023/11/18 01:20:58;;;;;;;70.88;27.42;;;;;;;3.39;100.00;98192.44;5038110;28;20454;-81
2023/11/18 01:23:24;;;;;;;57.95;22.90;;;;;;;3.42;100.00;98187.66;5039103;28;20830;-83
2023/11/18 01:25:51;;;;;;;60.63;24.77;;;;;;;3.39;100.00;98185.41;5045680;28;20773;-83
2023/11/18 01:28:17;;;;;;;69.43;27.35;;;;;;;3.37;100.00;98191.84;5041097;28;20399;-82
2023/11/18 01:30:44;;;;;;;57.97;22.20;;;;;;;3.42;100.00;98211.22;5039467;28;20486;-82
2023/11/18 01:33:10;;;;;;;67.63;24.02;;;;;;;3.42;100.00;98203.34;5038386;28;20824;-81
2023/11/18 01:35:38;;;;;;;52.97;20.23;;;;;;;3.47;100.00;98216.69;5038860;28;20422;-81
2023/11/18 01:38:05;;;;;;;58.13;21.55;;;;;;;3.47;100.00;98210.63;5038459;28;21032;-82
2023/11/18 01:40:32;;;;;;;67.05;24.73;;;;;;;3.43;100.00;98222.50;5037953;28;20411;-83
2023/11/18 01:42:59;;;;;;;55.72;21.50;;;;;;;3.46;100.00;98222.91;5038431;28;20418;-83
2023/11/18 01:45:26;;;;;;;51.42;21.15;;;;;;;3.44;100.00;98219.69;5042962;28;20398;-81
2023/11/18 01:47:54;;;;;;;57.67;21.17;;;;;;;3.44;100.00;98219.69;5038614;28;20401;-81
2023/11/18 01:50:20;;;;;;;48.33;19.42;;;;;;;3.45;100.00;98208.22;5037496;28;20394;-82
2023/11/18 01:52:48;;;;;;;57.17;21.50;;;;;;;3.45;100.00;98208.22;5036834;28;20764;-81
2023/11/18 01:55:15;;;;;;;55.60;21.10;;;;;;;3.46;100.00;98214.25;5036937;28;20438;-81
2023/11/18 01:57:43;;;;;;;52.75;22.05;;;;;;;3.44;100.00;98213.66;5037327;28;20418;-81
2023/11/18 02:00:11;;;;;;;54.80;21.55;;;;;;;3.40;100.00;98199.28;5036910;28;20440;-81
2023/11/18 02:02:37;;;;;;;52.78;20.13;;;;;;;3.41;100.00;98201.72;5036377;28;20756;-81
2023/11/18 02:05:06;;;;;;;45.53;17.92;;;;;;;3.43;100.00;98201.56;5037203;28;20404;-80
2023/11/18 02:07:33;;;;;;;39.65;16.63;;;;;;;3.46;100.00;98211.63;5037550;28;20430;-82
2023/11/18 02:10:01;;;;;;;51.03;18.65;;;;;;;3.45;100.00;98200.38;5037141;28;20426;-81
2023/11/18 02:12:34;;;;;;;49.10;18.05;;;;;;;3.46;100.00;98209.81;5037968;28;20843;-82
2023/11/18 02:15:03;;;;;;;48.78;19.75;;;;;;;3.44;100.00;98209.22;5037151;28;20490;-82
2023/11/18 02:17:31;;;;;;;51.30;19.98;;;;;;;3.45;100.00;98203.00;5037112;28;20414;-82
2023/11/18 02:19:59;;;;;;;52.58;20.05;;;;;;;3.43;100.00;98207.59;5037044;28;20778;-82
2023/11/18 02:22:26;;;;;;;47.05;19.05;;;;;;;3.44;100.00;98205.78;5037314;28;20389;-82
2023/11/18 02:24:53;;;;;;;44.60;18.15;;;;;;;3.43;100.00;98212.84;5036888;28;20405;-82
2023/11/18 02:27:22;;;;;;;49.00;18.73;;;;;;;3.43;100.00;98210.22;5037403;28;20484;-82
2023/11/18 02:29:50;;;;;;;38.42;15.13;;;;;;;3.44;100.00;98204.00;5037817;28;20432;-82
2023/11/18 02:32:23;;;;;;;37.77;15.30;;;;;;;3.47;100.00;98208.03;5037571;28;20425;-83
2023/11/18 02:34:57;;;;;;;59.00;19.63;;;;;;;3.44;100.00;98201.38;5037031;28;20413;-82
2023/11/18 02:37:25;;;;;;;45.72;17.13;;;;;;;3.44;100.00;98217.06;5038624;28;20454;-83
2023/11/18 02:39:59;;;;;;;47.92;18.55;;;;;;;3.43;100.00;98214.63;5041862;28;20418;-83
2023/11/18 02:42:28;;;;;;;33.65;14.65;;;;;;;3.44;100.00;98219.69;5038309;28;20498;-82
2023/11/18 02:44:59;;;;;;;37.15;14.50;;;;;;;3.43;100.00;98218.06;5042691;28;20445;-80
2023/11/18 02:47:26;;;;;;;33.33;13.85;;;;;;;3.43;100.00;98214.63;5041158;28;20422;-79
2023/11/18 02:49:56;;;;;;;36.08;13.65;;;;;;;3.40;100.00;98212.38;5036180;28;21303;-81
2023/11/18 02:52:22;;;;;;;32.93;13.57;;;;;;;3.35;100.00;98204.28;5034909;28;20870;-82
2023/11/18 02:54:48;;;;;;;34.90;13.67;;;;;;;3.29;100.00;98199.78;5036874;28;20461;-82
2023/11/18 02:57:15;;;;;;;32.33;12.98;;;;;;;3.20;100.00;98188.63;5037158;28;20459;-82
2023/11/18 02:59:42;;;;;;;24.30;11.32;;;;;;;3.11;100.00;98190.53;5036379;28;20452;-82
2023/11/18 03:02:09;;;;;;;37.60;14.68;;;;;;;3.00;100.00;98182.38;5036949;28;20414;-82
2023/11/18 03:04:35;;;;;;;29.08;12.55;;;;;;;2.92;100.00;98198.16;5036418;28;20408;-81
2023/11/18 03:07:01;;;;;;;29.40;12.27;;;;;;;2.84;100.00;98190.41;5036539;28;20406;-81
2023/11/18 03:09:27;;;;;;;26.67;10.88;;;;;;;2.74;100.00;98193.28;5037311;28;20472;-82
2023/11/18 03:11:54;;;;;;;26.90;11.63;;;;;;;2.68;100.00;98194.03;5036634;28;20403;-82
2023/11/18 03:14:21;;;;;;;35.28;13.65;;;;;;;2.62;100.00;98190.34;5037300;28;20404;-81
2023/11/18 03:16:48;;;;;;;35.30;13.98;;;;;;;2.61;100.00;98200.97;5035668;28;20460;-81
2023/11/18 03:19:14;;;;;;;37.70;13.82;;;;;;;2.58;100.00;98196.91;5037163;28;20708;-81
2023/11/18 03:21:40;;;;;;;33.53;12.50;;;;;;;2.57;100.00;98195.28;5036658;28;20898;-81
2023/11/18 03:24:08;;;;;;;27.25;11.20;;;;;;;2.57;100.00;98194.47;5036666;28;20417;-81
2023/11/18 03:26:34;;;;;;;24.98;10.73;;;;;;;2.56;100.00;98195.44;5036104;28;20394;-82
2023/11/18 03:29:00;;;;;;;25.75;10.38;;;;;;;2.57;100.00;98199.69;5037193;28;20460;-81
2023/11/18 03:31:26;;;;;;;30.55;12.35;;;;;;;2.60;100.00;98199.34;5036679;28;20391;-82
2023/11/18 03:33:54;;;;;;;22.27;9.95;;;;;;;2.63;100.00;98201.59;5037749;28;20410;-81
2023/11/18 03:36:20;;;;;;;35.25;13.95;;;;;;;2.63;100.00;98186.72;5036734;28;20392;-81
2023/11/18 03:38:48;;;;;;;36.38;13.48;;;;;;;2.64;100.00;98195.34;5037361;28;20422;-84
2023/11/18 03:41:15;;;;;;;27.30;10.80;;;;;;;2.66;100.00;98188.16;5037641;28;20399;-82
2023/11/18 03:43:41;;;;;;;25.83;10.68;;;;;;;2.69;100.00;98200.88;5037383;28;20403;-82
2023/11/18 03:46:07;;;;;;;24.20;9.98;;;;;;;2.72;100.00;98203.94;5043933;28;20387;-81
2023/11/18 03:48:33;;;;;;;28.05;11.60;;;;;;;2.74;100.00;98206.38;5036775;28;20399;-80
2023/11/18 03:51:01;;;;;;;23.60;9.98;;;;;;;2.77;100.00;98206.00;5036138;28;20408;-81
2023/11/18 03:53:27;;;;;;;24.77;10.15;;;;;;;2.75;100.00;98205.38;5037184;28;20451;-81
2023/11/18 03:55:53;;;;;;;22.73;9.00;;;;;;;2.71;100.00;98197.06;5039662;28;20403;-82
2023/11/18 03:58:19;;;;;;;21.45;8.63;;;;;;;2.67;100.00;98195.00;5039920;28;20425;-82
2023/11/18 04:00:45;;;;;;;21.38;8.57;;;;;;;2.63;100.00;98199.00;5040264;28;20407;-81
2023/11/18 04:03:12;;;;;;;25.02;9.73;;;;;;;2.58;100.00;98199.50;5040329;28;20391;-83
2023/11/18 04:05:39;;;;;;;21.70;9.57;;;;;;;2.57;100.00;98208.34;5040405;28;20407;-82
2023/11/18 04:08:06;;;;;;;24.30;10.32;;;;;;;2.54;100.00;98198.25;5040283;28;20402;-81
2023/11/18 04:10:32;;;;;;;24.75;9.80;;;;;;;2.49;100.00;98195.34;5040873;28;20708;-81
2023/11/18 04:12:59;;;;;;;24.17;9.82;;;;;;;2.47;100.00;98207.00;5040586;28;20395;-82
2023/11/18 04:15:26;;;;;;;22.48;9.38;;;;;;;2.44;100.00;98202.94;5040207;28;20421;-82
2023/11/18 04:17:53;;;;;;;24.75;10.10;;;;;;;2.42;100.00;98207.53;5040634;28;20519;-82
2023/11/18 04:20:19;;;;;;;25.00;9.25;;;;;;;2.41;100.00;98203.28;5045653;28;20863;-82
2023/11/18 04:22:45;;;;;;;23.02;9.80;;;;;;;2.41;100.00;98210.31;5040237;28;20395;-81
2023/11/18 04:25:13;;;;;;;21.25;9.48;;;;;;;2.39;100.00;98209.69;5041321;28;20403;-80
2023/11/18 04:27:40;;;;;;;30.77;12.18;;;;;;;2.41;100.00;98208.50;5046568;28;20439;-80
2023/11/18 04:30:08;;;;;;;36.72;13.27;;;;;;;2.42;100.00;98210.13;5044838;28;20860;-79
2023/11/18 04:32:34;;;;;;;33.85;14.00;;;;;;;2.43;100.00;98206.53;5039539;28;20406;-80
2023/11/18 04:35:06;;;;;;;32.58;13.23;;;;;;;2.46;100.00;98211.41;5038838;28;20402;-81
2023/11/18 04:37:32;;;;;;;28.75;12.18;;;;;;;2.47;100.00;98201.78;5038977;28;20415;-79
2023/11/18 04:39:59;;;;;;;38.35;14.57;;;;;;;2.44;100.00;98208.16;5039072;28;21002;-81
2023/11/18 04:42:28;;;;;;;34.58;13.82;;;;;;;2.44;100.00;98204.72;5035359;28;20755;-82
2023/11/18 04:44:54;;;;;;;29.23;12.45;;;;;;;2.44;100.00;98202.13;5043214;28;20403;-82
2023/11/18 04:47:20;;;;;;;27.55;11.30;;;;;;;2.42;100.00;98197.06;5040016;28;20405;-80
2023/11/18 04:49:46;;;;;;;35.43;13.87;;;;;;;2.37;100.00;98199.41;5038680;28;20395;-81
2023/11/18 04:52:13;;;;;;;40.60;15.95;;;;;;;2.34;100.00;98191.94;5046802;28;20734;-80
2023/11/18 04:54:39;;;;;;;45.22;18.17;;;;;;;2.29;100.00;98204.72;5037591;28;20395;-81
2023/11/18 04:57:08;;;;;;;47.90;17.98;;;;;;;2.26;100.00;98200.66;5041954;28;20925;-81
2023/11/18 04:59:37;;;;;;;33.80;13.57;;;;;;;2.26;100.00;98208.50;5044815;28;20492;-79
2023/11/18 05:02:03;;;;;;;33.47;13.37;;;;;;;2.25;100.00;98208.69;5039009;28;20399;-82
2023/11/18 05:04:29;;;;;;;45.63;16.55;;;;;;;2.21;100.00;98205.59;5037574;28;20403;-81
2023/11/18 05:06:55;;;;;;;36.85;14.27;;;;;;;2.16;100.00;98199.31;5048235;28;20862;-80
2023/11/18 05:09:21;;;;;;;36.35;14.05;;;;;;;2.13;100.00;98199.66;5038775;28;20734;-81
2023/11/18 05:11:48;;;;;;;39.17;13.82;;;;;;;2.08;100.00;98194.16;5050526;28;20917;-81
2023/11/18 05:14:16;;;;;;;33.28;12.60;;;;;;;2.04;100.00;98188.47;5053384;28;20397;-81
2023/11/18 05:16:44;;;;;;;32.55;12.43;;;;;;;2.03;100.00;98188.66;5041459;28;20399;-81
2023/11/18 05:19:10;;;;;;;35.90;12.63;;;;;;;2.00;100.00;98192.44;5053210;28;20400;-81
2023/11/18 05:21:36;;;;;;;27.00;10.87;;;;;;;2.00;100.00;98196.84;5040574;28;20438;-81
2023/11/18 05:24:02;;;;;;;36.72;12.63;;;;;;;2.01;100.00;98188.03;5042243;28;20397;-81
2023/11/18 05:26:29;;;;;;;34.28;12.82;;;;;;;2.05;100.00;98194.50;5044508;28;20440;-81
2023/11/18 05:28:55;;;;;;;29.30;11.00;;;;;;;2.06;100.00;98185.69;5039238;28;20434;-82
2023/11/18 05:31:21;;;;;;;29.53;12.00;;;;;;;2.08;100.00;98184.53;5047312;28;20429;-81
2023/11/18 05:33:51;;;;;;;33.50;12.02;;;;;;;2.09;100.00;98186.16;5048185;28;20839;-81
2023/11/18 05:36:26;;;;;;;27.60;10.10;;;;;;;2.10;100.00;98189.56;5046018;28;20405;-82
2023/11/18 05:38:53;;;;;;;23.40;9.57;;;;;;;2.12;100.00;98183.16;5036749;28;20414;-82
2023/11/18 05:41:27;;;;;;;20.73;9.25;;;;;;;2.10;100.00;98181.75;5039722;28;20395;-81
2023/11/18 05:43:56;;;;;;;17.98;8.02;;;;;;;2.06;100.00;98186.50;5035086;28;20411;-82
2023/11/18 05:46:25;;;;;;;21.48;8.27;;;;;;;2.02;100.00;98190.47;5038855;28;20440;-82
2023/11/18 05:48:53;;;;;;;15.57;6.93;;;;;;;2.01;100.00;98188.03;5041284;28;20402;-82
2023/11/18 05:51:21;;;;;;;16.77;7.40;;;;;;;1.99;100.00;98190.00;5039893;28;20505;-81
2023/11/18 05:53:47;;;;;;;24.25;9.27;;;;;;;1.95;100.00;98184.31;5041225;28;20402;-81
2023/11/18 05:56:14;;;;;;;22.17;8.63;;;;;;;1.91;100.00;98178.63;5059963;28;20793;-83
2023/11/18 05:58:40;;;;;;;22.92;10.10;;;;;;;1.88;100.00;98180.78;5042369;28;20493;-81
2023/11/18 06:01:10;;;;;;;22.70;8.77;;;;;;;1.85;100.00;98184.56;5042146;28;20411;-80
2023/11/18 06:03:38;;;;;;;19.08;8.05;;;;;;;1.83;100.00;98170.88;5038756;28;20403;-83
2023/11/18 06:06:07;;;;;;;21.90;8.52;;;;;;;1.80;100.00;98167.81;5041394;28;20387;-83
2023/11/18 06:08:33;;;;;;;20.58;8.60;;;;;;;1.76;100.00;98169.13;5039440;28;20791;-81
2023/11/18 06:10:59;;;;;;;19.58;8.10;;;;;;;1.72;100.00;98175.72;5035730;28;20430;-81
2023/11/18 06:13:27;;;;;;;18.90;8.02;;;;;;;1.68;100.00;98170.00;5040373;28;20490;-82
2023/11/18 06:15:53;;;;;;;23.80;9.02;;;;;;;1.64;100.00;98173.97;5040353;28;21003;-81
2023/11/18 06:18:19;;;;;;;21.33;9.02;;;;;;;1.60;100.00;98172.69;5042001;28;20518;-81
2023/11/18 06:20:46;;;;;;;33.47;11.13;;;;;;;1.57;100.00;98165.22;5040017;28;20401;-81
2023/11/18 06:23:18;;;;;;;40.75;14.40;;;;;;;1.54;100.00;98163.75;5042014;28;20761;-82
2023/11/18 06:25:45;;;;;;;40.43;15.17;;;;;;;1.58;100.00;98166.03;5042521;28;20410;-82
2023/11/18 06:28:12;;;;;;;47.97;15.90;;;;;;;1.60;100.00;98177.09;5041959;28;21732;-83
2023/11/18 06:30:38;;;;;;;48.53;15.93;;;;;;;1.62;100.00;98168.09;5036530;28;20498;-82
2023/11/18 06:33:05;;;;;;;39.03;14.83;;;;;;;1.64;100.00;98184.41;5038733;28;20480;-81
2023/11/18 06:35:31;;;;;;;38.42;13.85;;;;;;;1.64;100.00;98192.25;5039375;28;20425;-82
2023/11/18 06:37:58;;;;;;;32.45;11.98;;;;;;;1.64;100.00;98201.88;5048049;28;20421;-80
2023/11/18 06:40:27;;;;;;;34.17;12.48;;;;;;;1.62;100.00;98204.63;5053312;28;20400;-81
2023/11/18 06:42:54;;;;;;;49.45;16.92;;;;;;;1.58;100.00;98200.75;5048913;28;20406;-81
2023/11/18 06:45:22;;;;;;;56.17;20.53;;;;;;;1.61;100.00;98203.00;5048845;28;20439;-80
2023/11/18 06:47:49;;;;;;;55.85;20.83;;;;;;;1.68;100.00;98211.75;5048836;28;20411;-83
2023/11/18 06:50:15;;;;;;;58.33;19.88;;;;;;;1.69;100.00;98202.94;5040824;28;20446;-80
2023/11/18 06:52:41;;;;;;;63.08;21.17;;;;;;;1.72;100.00;98205.22;5038693;28;20414;-81
2023/11/18 06:55:08;;;;;;;67.95;23.33;;;;;;;1.77;100.00;98200.28;5038345;28;20930;-82
2023/11/18 06:57:36;;;;;;;72.50;23.20;;;;;;;1.80;100.00;98189.50;5034858;28;20411;-81
2023/11/18 07:00:08;;;;;;;92.22;27.02;;;;;;;1.88;100.00;98193.84;5040080;28;20914;-83
2023/11/18 07:02:34;;;;;;;83.45;27.90;;;;;;;1.95;100.00;98181.72;5039352;28;20815;-82
2023/11/18 07:05:00;;;;;;;79.85;27.08;;;;;;;2.01;100.00;98194.06;5036623;28;20391;-81
2023/11/18 07:07:26;;;;;;;77.55;25.08;;;;;;;2.08;100.00;98181.09;5034314;28;20506;-81
2023/11/18 07:09:52;;;;;;;91.85;26.73;;;;;;;2.11;100.00;98184.16;5033365;28;20403;-79
2023/11/18 07:12:22;;;;;;;93.47;31.63;;;;;;;2.15;100.00;98184.63;5035528;28;20474;-82
2023/11/18 07:14:49;;;;;;;90.07;29.73;;;;;;;2.22;100.00;98191.56;5036222;28;20578;-82
2023/11/18 07:17:18;;;;;;;95.23;31.33;;;;;;;2.24;100.00;98194.00;5034549;28;20522;-84
2023/11/18 07:19:45;;;;;;;82.45;27.83;;;;;;;2.30;100.00;98196.72;5036712;28;20891;-80
2023/11/18 07:22:11;;;;;;;92.28;30.80;;;;;;;2.31;100.00;98202.75;5036122;28;20406;-80
2023/11/18 07:24:37;;;;;;;77.70;26.98;;;;;;;2.37;100.00;98211.66;5035976;28;20395;-79
2023/11/18 07:27:05;;;;;;;72.97;24.73;;;;;;;2.42;100.00;98214.53;5035211;28;20746;-80
2023/11/18 07:29:32;;;;;;;93.43;29.63;;;;;;;2.43;100.00;98218.78;5041113;28;20413;-81
2023/11/18 07:32:05;;;;;;;81.30;27.27;;;;;;;2.46;100.00;98214.03;5038031;28;20418;-83
2023/11/18 07:34:32;;;;;;;91.87;30.13;;;;;;;2.49;100.00;98223.28;5039354;28;20435;-80
2023/11/18 07:36:59;;;;;;;86.63;28.65;;;;;;;2.52;100.00;98212.50;5040942;28;20440;-81
2023/11/18 07:39:43;;;;;;;68.55;23.83;;;;;;;2.62;100.00;98205.22;5042415;28;20840;-81
2023/11/18 07:42:10;;;;;;;74.35;25.00;;;;;;;2.68;100.00;98210.53;5039016;28;20417;-80
2023/11/18 07:44:36;;;;;;;85.80;27.60;;;;;;;2.72;100.00;98203.13;5039282;28;20494;-81
2023/11/18 07:47:05;;;;;;;71.60;24.60;;;;;;;2.81;100.00;98201.22;5039541;28;20418;-80
2023/11/18 07:49:31;;;;;;;62.20;22.47;;;;;;;2.89;100.00;98204.56;5037491;28;21072;-85
2023/11/18 07:51:58;;;;;;;67.35;23.55;;;;;;;2.96;100.00;98202.00;5031577;28;20405;-80
2023/11/18 07:54:24;;;;;;;81.43;25.90;;;;;;;2.97;100.00;98195.78;5044154;28;20402;-79
2023/11/18 07:56:50;;;;;;;60.60;20.33;;;;;;;3.04;100.00;98181.00;5044321;28;20757;-82
2023/11/18 07:59:18;;;;;;;79.68;25.30;;;;;;;3.06;100.00;98184.25;5035544;28;20883;-81
2023/11/18 08:01:46;;;;;;;54.40;19.50;;;;;;;3.15;100.00;98198.03;5039385;28;20408;-81
2023/11/18 08:04:13;;;;;;;56.08;20.10;;;;;;;3.22;100.00;98199.72;5039357;28;20438;-79
2023/11/18 08:06:39;;;;;;;71.85;23.20;;;;;;;3.23;100.00;98200.53;5041336;28;20434;-80
2023/11/18 08:09:12;;;;;;;58.58;20.35;;;;;;;3.30;100.00;98207.47;5042622;28;20403;-81
2023/11/18 08:11:41;;;;;;;49.47;19.27;;;;;;;3.40;100.00;98209.75;5042054;28;20846;-80
2023/11/18 08:14:07;;;;;;;49.00;17.45;;;;;;;3.50;100.00;98192.78;5044813;28;20442;-81
2023/11/18 08:16:34;;;;;;;48.17;18.25;;;;;;;3.57;100.00;98184.97;5045443;28;20744;-80
2023/11/18 08:19:02;;;;;;;43.67;16.48;;;;;;;3.65;100.00;98202.38;5042678;28;20423;-80
2023/11/18 08:21:29;;;;;;;40.58;16.10;;;;;;;3.70;100.00;98215.72;5044249;28;20438;-82
2023/11/18 08:23:55;;;;;;;38.05;15.02;;;;;;;3.70;100.00;98213.91;5042416;28;20434;-82
2023/11/18 08:26:22;;;;;;;46.05;17.20;;;;;;;3.69;100.00;98206.22;5041918;28;20417;-83
2023/11/18 08:28:48;;;;;;;55.43;18.50;;;;;;;3.67;100.00;98209.06;5045469;28;20430;-80
2023/11/18 08:31:17;;;;;;;42.17;16.08;;;;;;;3.74;100.00;98199.44;5037829;28;20922;-81
2023/11/18 08:33:45;;;;;;;41.92;16.63;;;;;;;3.74;100.00;98211.72;5037891;28;20875;-81
2023/11/18 08:36:12;;;;;;;40.13;14.52;;;;;;;3.78;100.00;98207.72;5039257;28;20441;-81
2023/11/18 08:38:40;;;;;;;32.35;13.00;;;;;;;3.82;100.00;98207.19;5038824;28;20480;-80
2023/11/18 08:41:09;;;;;;;48.75;15.57;;;;;;;3.78;100.00;98205.09;5042255;28;20864;-81
2023/11/18 08:43:35;;;;;;;43.38;15.88;;;;;;;3.78;100.00;98211.16;5038906;28;20399;-82
2023/11/18 08:46:01;;;;;;;34.22;13.20;;;;;;;3.86;100.00;98204.97;5038004;28;20442;-82
2023/11/18 08:48:28;;;;;;;35.67;13.50;;;;;;;3.94;100.00;98206.66;5037802;28;20403;-81
2023/11/18 08:50:54;;;;;;;25.48;11.20;;;;;;;4.05;100.00;98206.97;5038603;28;20480;-83
2023/11/18 08:53:25;;;;;;;33.05;12.52;;;;;;;4.04;100.00;98210.59;5036448;28;20407;-83
2023/11/18 08:55:56;;;;;;;26.25;11.60;;;;;;;4.11;100.00;98214.06;5041051;28;20430;-81
2023/11/18 08:58:22;;;;;;;34.50;12.90;;;;;;;4.16;100.00;98195.97;5039868;28;20426;-82
2023/11/18 09:00:54;;;;;;;26.02;10.75;;;;;;;4.27;100.00;98195.47;5041286;28;20437;-82
2023/11/18 09:03:25;;;;;;;27.63;11.18;;;;;;;4.42;100.00;98184.06;5040327;28;20399;-81
2023/11/18 09:05:57;;;;;;;19.20;9.05;;;;;;;4.62;100.00;98180.53;5040078;28;20452;-81
2023/11/18 09:08:32;;;;;;;13.80;7.53;;;;;;;4.87;100.00;98187.94;5040989;28;20395;-80
2023/11/18 09:10:59;;;;;;;9.13;5.80;;;;;;;5.10;100.00;98193.69;5040380;28;20498;-80
2023/11/18 09:13:30;;;;;;;15.23;6.43;;;;;;;5.13;100.00;98193.28;5039927;28;20464;-82
2023/11/18 09:15:56;;;;;;;14.82;6.55;;;;;;;5.08;100.00;98187.81;5040052;28;20426;-81
2023/11/18 09:18:22;;;;;;;12.05;5.80;;;;;;;4.96;100.00;98192.03;5039970;28;20977;-82
2023/11/18 09:20:49;;;;;;;11.63;5.43;;;;;;;5.07;100.00;98188.81;5039632;28;20415;-82
2023/11/18 09:23:18;;;;;;;8.73;4.82;;;;;;;4.90;100.00;98195.41;5039784;28;20486;-81
2023/11/18 09:25:46;;;;;;;9.25;4.60;;;;;;;5.03;100.00;98203.34;5044137;28;20414;-83
2023/11/18 09:28:15;;;;;;;8.02;4.90;;;;;;;5.04;100.00;98195.25;5039482;28;20403;-80
2023/11/18 09:30:49;;;;;;;8.43;4.13;;;;;;;5.21;100.00;98194.91;5038932;28;20816;-81
2023/11/18 09:33:25;;;;;;;6.88;4.03;;;;;;;5.30;100.00;98196.38;5039588;28;20787;-82
2023/11/18 09:35:52;;;;;;;4.72;3.72;;;;;;;5.34;100.00;98189.69;5039550;28;20454;-82
2023/11/18 09:38:18;;;;;;;4.78;3.33;;;;;;;5.53;100.00;98188.16;5039312;28;20768;-82
2023/11/18 09:40:47;;;;;;;5.80;3.38;;;;;;;5.59;100.00;98196.03;5039750;28;20434;-81
2023/11/18 09:43:16;;;;;;;4.30;3.10;;;;;;;5.67;100.00;98190.59;5040043;28;20391;-82
2023/11/18 09:45:47;;;;;;;7.33;3.53;;;;;;;5.66;100.00;98191.59;5040096;28;20399;-83
2023/11/18 09:48:17;;;;;;;5.82;2.90;;;;;;;5.73;100.00;98196.88;5043218;28;20851;-81
2023/11/18 09:50:47;;;;;;;3.95;2.60;;;;;;;5.80;100.00;98192.41;5040919;28;20487;-81
2023/11/18 09:53:14;;;;;;;6.22;2.65;;;;;;;5.86;100.00;98190.84;5042183;28;20395;-83
2023/11/18 09:55:49;;;;;;;5.88;2.80;;;;;;;5.75;100.00;98179.09;5041220;28;20486;-81
2023/11/18 09:58:23;;;;;;;6.07;3.00;;;;;;;5.79;100.00;98169.78;5040252;28;20538;-81
2023/11/18 10:00:55;;;;;;;8.32;2.60;;;;;;;5.71;100.00;98164.75;5039584;28;20399;-80
2023/11/18 10:03:22;;;;;;;3.90;2.30;;;;;;;5.88;100.00;98178.31;5039237;28;20888;-82
2023/11/18 10:05:50;;;;;;;6.27;2.40;;;;;;;5.98;100.00;98189.25;5038917;28;20403;-82
2023/11/18 10:08:17;;;;;;;2.95;2.22;;;;;;;5.99;100.00;98178.53;5039268;28;20403;-82
2023/11/18 10:10:45;;;;;;;4.00;2.30;;;;;;;5.90;100.00;98173.69;5039758;28;20402;-81
2023/11/18 10:13:24;;;;;;;2.65;2.08;;;;;;;6.14;100.00;98171.25;5040514;28;20434;-80
2023/11/18 10:15:57;;;;;;;4.50;2.60;;;;;;;6.25;100.00;98174.25;5040117;28;20395;-81
2023/11/18 10:18:24;;;;;;;3.78;2.20;;;;;;;6.35;100.00;98169.41;5038672;28;20446;-80
2023/11/18 10:20:51;;;;;;;3.78;2.00;;;;;;;6.49;100.00;98169.19;5039456;28;20670;-81
2023/11/18 10:23:19;;;;;;;1.95;1.85;;;;;;;6.64;100.00;98173.38;5039425;28;20395;-82
2023/11/18 10:25:48;;;;;;;2.00;1.80;;;;;;;6.75;100.00;98165.69;5039588;28;20402;-81
2023/11/18 10:28:23;;;;;;;5.00;2.40;;;;;;;6.72;100.00;98170.53;5038405;28;20407;-82
2023/11/18 10:30:51;;;;;;;7.03;3.20;;;;;;;6.53;100.00;98167.75;5039750;28;20890;-80
2023/11/18 10:33:18;;;;;;;4.95;2.35;;;;;;;6.45;100.00;98175.88;5040325;28;20404;-82
2023/11/18 10:35:51;;;;;;;3.08;1.95;;;;;;;6.60;100.00;98178.28;5040070;28;20399;-82
2023/11/18 10:38:17;;;;;;;2.22;1.90;;;;;;;6.68;100.00;98178.06;5039880;28;20414;-83
2023/11/18 10:40:43;;;;;;;2.23;2.03;;;;;;;6.77;100.00;98178.59;5040304;28;20910;-83
2023/11/18 10:43:10;;;;;;;2.15;1.80;;;;;;;6.80;100.00;98184.28;5040377;28;20445;-83
2023/11/18 10:45:40;;;;;;;1.67;1.58;;;;;;;6.83;100.00;98175.16;5039759;28;20940;-82
2023/11/18 10:48:08;;;;;;;3.22;1.67;;;;;;;6.73;100.00;98180.06;5040186;28;20428;-82
2023/11/18 10:50:35;;;;;;;3.33;1.45;;;;;;;6.82;100.00;98178.81;5043933;28;20422;-80
2023/11/18 10:53:03;;;;;;;4.57;1.75;;;;;;;6.65;100.00;98169.75;5038519;28;20422;-81
2023/11/18 10:55:36;;;;;;;3.13;1.70;;;;;;;6.68;100.00;98156.19;5038962;28;20406;-83
2023/11/18 10:58:04;;;;;;;8.65;2.10;;;;;;;6.58;100.00;98159.25;5038065;28;20990;-82
2023/11/18 11:00:45;;;;;;;2.28;1.50;;;;;;;6.77;100.00;98161.00;5039062;28;20427;-80
2023/11/18 11:03:14;;;;;;;3.95;1.80;;;;;;;6.78;100.00;98159.19;5039065;28;20908;-82
2023/11/18 11:05:42;;;;;;;5.10;1.90;;;;;;;6.60;100.00;98144.88;5042915;28;20864;-80
2023/11/18 11:08:12;;;;;;;4.90;2.10;;;;;;;6.46;100.00;98143.31;5043390;28;20490;-81
2023/11/18 11:10:41;;;;;;;4.60;1.80;;;;;;;6.40;100.00;98151.19;5041269;28;20470;-82
2023/11/18 11:13:08;;;;;;;2.53;1.80;;;;;;;6.50;100.00;98159.47;5042004;28;20417;-83
2023/11/18 11:15:42;;;;;;;3.30;1.80;;;;;;;6.41;100.00;98153.63;5043160;28;20402;-83
2023/11/18 11:18:14;;;;;;;6.18;2.00;;;;;;;6.59;100.00;98153.78;5042305;28;20457;-80
2023/11/18 11:20:48;;;;;;;4.67;2.17;;;;;;;6.75;100.00;98157.78;5042196;28;20804;-81
2023/11/18 11:23:21;;;;;;;3.60;1.80;;;;;;;6.82;100.00;98160.41;5042800;28;20485;-82